Terminal Aerodrome Forecast
Issued by NWS

Home | Current Version | Previous Version | Text Only | Print | Product List | Glossary On
Versions: 1 2 3 4 5 6 7 8 9 10 11 12 13 14 15 16 17 18
274
FTUS41 KCLE 261424 AAB
TAFFDY
TAF AMD
KFDY 261424Z 2614/2712 10006KT 4SM -SHRA BKN035 OVC120
      TEMPO 2614/2617 VRB06KT 1SM RA BKN020
     FM261700 18010KT 6SM -SHRA BR OVC025
      TEMPO 2618/2621 3SM -TSRA OVC015CB
     FM262100 21010KT 6SM -SHRA BR BKN035
      TEMPO 2622/2701 3SM -TSRA OVC025CB
     FM270200 20004KT 6SM BR SCT012 BKN120
     FM270500 23006KT 3SM BR OVC012=

USA.gov is the U.S. government's official web portal to all federal, state and local government web resources and services.